Главная страница
METAR-TAF:

METAR-TAF

Аэропорты :

Ботсфьорд, Норвегия

широта: 70-38N, долгота: 029-44E, высота над уровнем моря: 10 м

Текущие метеонаблюдения

Эта сводка был подготовлена 5 часа и 54 минут назад, в 20:50 UTC
Ветер 6 Узел от восточно-северо-восточный
Температура 8°C
Влажность 93%
Давление 995 hPa
Видимость 10 км и более
Отдельные облака на высоте 1100 фута
Рассеянная облачность на высоте 1600 фута
небольшие ливневые дожди

METAR: ENBS 202050Z 06006KT 9999 -SHRA SCT011 BKN016 08/07 Q0995

Время: 04:44 (02:44 UTC)


TAF: отсутствует

Метеонаблюдения и прогнозы для более 4000 аэропортов (сводки METAR и TAF).

Имеющиеся станции представлены на карте желтыми и красными точками.

Чтобы увидеть название станции, наведите на нее мышь.

Затем щелкните, чтобы увидеть метеонаблюдения и метеопрогнозы.

Управление картой: чтобы увеличить масштаб, щелкните зеленые кнопки с черным крестиком; чтобы уменьшить масштаб, щелкните зеленую кнопку с тире; для просмотра соседних карт щелкайте зеленые стрелки.


METAR-TAF: